Time;durP1;ratioP1;P1;durP2;ratioP2;P2;SDS_P1;SDS_P2;PMS_P1;PMS_P2;Temp;Humidity;BMP_temperature;BMP_pressure;BME280_temperature;BME280_humidity;BME280_pressure;Samples;Min_cycle;Max_cycle;Signal;HPM_P1;HPM_P2
2022/06/09 00:02:01;;;;;;;3.75;3.27;;;;;;;;;;1777534;80;21001;-77
2022/06/09 00:04:28;;;;;;;4.30;3.10;;;;;;;;;;1771524;80;21561;-77
2022/06/09 00:07:11;;;;;;;4.55;3.10;;;;;;;;;;1745030;81;21059;-77
2022/06/09 00:09:39;;;;;;;3.35;3.05;;;;;;;;;;1777959;81;21080;-76
2022/06/09 00:12:06;;;;;;;5.17;3.12;;;;;;;;;;1780977;80;21076;-77
2022/06/09 00:14:33;;;;;;;5.08;3.47;;;;;;;;;;1783012;80;21076;-77
2022/06/09 00:17:00;;;;;;;4.12;3.40;;;;;;;;;;1787681;80;20996;-77
2022/06/09 00:19:27;;;;;;;3.90;3.45;;;;;;;;;;1772697;80;21068;-77
2022/06/09 00:21:53;;;;;;;4.55;3.12;;;;;;;;;;1764934;80;21607;-77
2022/06/09 00:24:19;;;;;;;4.83;3.52;;;;;;;;;;1786702;80;21029;-76
2022/06/09 00:26:46;;;;;;;4.10;3.70;;;;;;;;;;1787019;80;21000;-76
2022/06/09 00:29:12;;;;;;;4.10;3.40;;;;;;;;;;1789086;80;21015;-76
2022/06/09 00:31:39;;;;;;;4.80;3.17;;;;;;;;;;1787202;80;21111;-77
2022/06/09 00:34:05;;;;;;;3.50;3.20;;;;;;;;;;1762102;80;21107;-77
2022/06/09 00:36:33;;;;;;;3.42;3.12;;;;;;;;;;1786203;80;21032;-78
2022/06/09 00:38:59;;;;;;;4.92;3.33;;;;;;;;;;1788076;80;21622;-77
2022/06/09 00:41:25;;;;;;;5.97;3.70;;;;;;;;;;1788003;80;21056;-78
2022/06/09 00:43:52;;;;;;;5.67;3.70;;;;;;;;;;1786945;80;20985;-78
2022/06/09 00:46:19;;;;;;;3.75;3.17;;;;;;;;;;1786710;80;21026;-78
2022/06/09 00:48:54;;;;;;;4.10;3.52;;;;;;;;;;1786852;80;21070;-78
2022/06/09 00:51:31;;;;;;;5.20;3.70;;;;;;;;;;1787187;80;21052;-77
2022/06/09 00:54:01;;;;;;;4.00;3.60;;;;;;;;;;1776360;80;21106;-77
2022/06/09 00:56:28;;;;;;;4.15;3.42;;;;;;;;;;1782098;80;21012;-78
2022/06/09 00:58:54;;;;;;;4.58;3.55;;;;;;;;;;1786895;79;21888;-78
2022/06/09 01:04:09;;;;;;;3.98;3.42;;;;;;;;;;1700070;80;21089;-77
2022/06/09 01:06:37;;;;;;;4.33;3.55;;;;;;;;;;1755390;82;21574;-77
2022/06/09 01:09:13;;;;;;;4.67;3.52;;;;;;;;;;1731273;82;21024;-77
2022/06/09 01:11:39;;;;;;;4.55;3.55;;;;;;;;;;1739182;82;21107;-77
2022/06/09 01:14:06;;;;;;;5.15;3.65;;;;;;;;;;1728915;82;21095;-77
2022/06/09 01:16:52;;;;;;;4.78;3.70;;;;;;;;;;1753509;82;21516;-78
2022/06/09 01:19:28;;;;;;;5.65;3.65;;;;;;;;;;1751388;82;21063;-77
2022/06/09 01:22:13;;;;;;;4.55;3.40;;;;;;;;;;1722093;82;21100;-77
2022/06/09 01:24:46;;;;;;;4.00;3.25;;;;;;;;;;1750072;82;21029;-78
2022/06/09 01:27:17;;;;;;;4.85;3.30;;;;;;;;;;1742355;82;21010;-77
2022/06/09 01:29:46;;;;;;;4.47;3.30;;;;;;;;;;1723637;82;21097;-77
2022/06/09 01:32:19;;;;;;;4.25;3.35;;;;;;;;;;1726620;82;21006;-77
2022/06/09 01:35:04;;;;;;;5.25;3.60;;;;;;;;;;1749210;82;21100;-77
2022/06/09 01:37:32;;;;;;;4.60;3.58;;;;;;;;;;1723970;82;21105;-77
2022/06/09 01:39:59;;;;;;;4.05;3.37;;;;;;;;;;1723763;82;21092;-77
2022/06/09 01:42:36;;;;;;;4.33;3.22;;;;;;;;;;1748328;82;21068;-77
2022/06/09 01:45:04;;;;;;;3.90;3.08;;;;;;;;;;1754869;82;21628;-77
2022/06/09 01:47:32;;;;;;;4.15;3.20;;;;;;;;;;1753176;82;20997;-77
2022/06/09 01:49:58;;;;;;;4.30;3.20;;;;;;;;;;1742511;82;21570;-77
2022/06/09 01:52:25;;;;;;;4.37;3.40;;;;;;;;;;1728844;82;21068;-77
2022/06/09 01:54:51;;;;;;;4.30;3.37;;;;;;;;;;1753326;82;21021;-77
2022/06/09 01:57:19;;;;;;;5.92;3.22;;;;;;;;;;1755170;82;21082;-77
2022/06/09 01:59:46;;;;;;;4.92;3.95;;;;;;;;;;1732762;82;21034;-77
2022/06/09 02:02:16;;;;;;;4.70;3.85;;;;;;;;;;1742066;82;21037;-77
2022/06/09 02:04:46;;;;;;;5.65;3.58;;;;;;;;;;1725652;82;21144;-78
2022/06/09 02:07:13;;;;;;;4.95;3.70;;;;;;;;;;1718541;83;21150;-77
2022/06/09 02:09:39;;;;;;;7.30;3.92;;;;;;;;;;1715825;83;21527;-77
2022/06/09 02:12:06;;;;;;;5.90;3.77;;;;;;;;;;1732271;82;21060;-77
2022/06/09 02:14:33;;;;;;;6.95;4.03;;;;;;;;;;1731756;82;21520;-77
2022/06/09 02:17:03;;;;;;;4.55;3.47;;;;;;;;;;1690391;85;21013;-77
2022/06/09 02:19:29;;;;;;;4.33;3.52;;;;;;;;;;1693627;84;21291;-77
2022/06/09 02:21:56;;;;;;;5.90;4.00;;;;;;;;;;1722829;83;21037;-77
2022/06/09 02:24:22;;;;;;;5.35;3.62;;;;;;;;;;1690904;85;21081;-78
2022/06/09 02:26:48;;;;;;;5.25;3.50;;;;;;;;;;1696408;84;21626;-78
2022/06/09 02:29:15;;;;;;;4.70;3.52;;;;;;;;;;1689067;85;21075;-78
2022/06/09 02:31:42;;;;;;;8.03;3.80;;;;;;;;;;1693538;83;21196;-78
2022/06/09 02:34:09;;;;;;;4.60;3.65;;;;;;;;;;1694493;83;21019;-79
2022/06/09 02:36:35;;;;;;;4.87;3.72;;;;;;;;;;1709987;84;21097;-78
2022/06/09 02:39:02;;;;;;;4.97;3.90;;;;;;;;;;1677200;84;21088;-77
2022/06/09 02:41:28;;;;;;;4.47;3.98;;;;;;;;;;1689651;84;21048;-78
2022/06/09 02:43:54;;;;;;;4.42;3.50;;;;;;;;;;1725540;82;21017;-77
2022/06/09 02:46:20;;;;;;;4.40;3.80;;;;;;;;;;1690945;85;21497;-77
2022/06/09 02:48:46;;;;;;;5.30;4.03;;;;;;;;;;1697149;84;21021;-78
2022/06/09 02:51:14;;;;;;;5.30;4.00;;;;;;;;;;1694469;84;21537;-77
2022/06/09 02:53:40;;;;;;;5.55;4.35;;;;;;;;;;1723607;82;21053;-76
2022/06/09 02:56:07;;;;;;;5.33;3.80;;;;;;;;;;1722096;83;21035;-77
2022/06/09 02:58:35;;;;;;;5.10;3.83;;;;;;;;;;1726050;83;21086;-77
2022/06/09 03:01:01;;;;;;;13.15;4.22;;;;;;;;;;1725149;83;21062;-78
2022/06/09 03:03:27;;;;;;;5.85;4.05;;;;;;;;;;1721418;83;21105;-77
2022/06/09 03:05:53;;;;;;;5.95;3.83;;;;;;;;;;1712979;83;21092;-78
2022/06/09 03:08:21;;;;;;;7.33;3.30;;;;;;;;;;1694845;85;21313;-77
2022/06/09 03:10:47;;;;;;;4.87;3.58;;;;;;;;;;1696123;83;21533;-77
2022/06/09 03:13:13;;;;;;;5.40;3.72;;;;;;;;;;1709344;83;21092;-78
2022/06/09 03:15:40;;;;;;;24.98;4.92;;;;;;;;;;1719832;83;21110;-77
2022/06/09 03:18:06;;;;;;;27.50;4.65;;;;;;;;;;1719961;83;21047;-77
2022/06/09 03:20:34;;;;;;;21.10;5.65;;;;;;;;;;1721650;82;21615;-78
2022/06/09 03:23:00;;;;;;;9.48;4.92;;;;;;;;;;1725485;83;21091;-77
2022/06/09 03:25:26;;;;;;;7.28;4.90;;;;;;;;;;1686726;85;21092;-78
2022/06/09 03:27:52;;;;;;;13.43;4.83;;;;;;;;;;1719747;83;21067;-78
2022/06/09 03:30:20;;;;;;;7.37;4.20;;;;;;;;;;1719767;83;21059;-78
2022/06/09 03:32:46;;;;;;;7.40;4.30;;;;;;;;;;1724917;83;21074;-78
2022/06/09 03:35:12;;;;;;;7.22;3.92;;;;;;;;;;1694537;83;21544;-77
2022/06/09 03:37:38;;;;;;;5.20;3.58;;;;;;;;;;1704550;83;21088;-78
2022/06/09 03:40:06;;;;;;;8.63;3.70;;;;;;;;;;1683264;83;21132;-77
2022/06/09 03:42:32;;;;;;;6.80;3.72;;;;;;;;;;1720202;83;21027;-78
2022/06/09 03:44:58;;;;;;;7.67;6.83;;;;;;;;;;1723622;82;21542;-78
2022/06/09 03:47:24;;;;;;;51.13;38.00;;;;;;;;;;1724786;82;21104;-79
2022/06/09 03:49:50;;;;;;;37.70;28.85;;;;;;;;;;1706021;83;21047;-78
2022/06/09 03:52:16;;;;;;;17.25;11.65;;;;;;;;;;1731202;82;21527;-78
2022/06/09 03:54:43;;;;;;;6.55;5.80;;;;;;;;;;1744587;82;21060;-78
2022/06/09 03:57:09;;;;;;;7.62;3.90;;;;;;;;;;1726139;82;21067;-79
2022/06/09 03:59:36;;;;;;;4.78;3.60;;;;;;;;;;1691290;85;21033;-79
2022/06/09 04:02:02;;;;;;;4.83;3.35;;;;;;;;;;1692857;85;21060;-79
2022/06/09 04:04:29;;;;;;;4.58;3.20;;;;;;;;;;1720622;82;21873;-78
2022/06/09 04:06:55;;;;;;;5.25;3.50;;;;;;;;;;1720885;82;21123;-78
2022/06/09 04:09:21;;;;;;;4.40;3.42;;;;;;;;;;1727590;82;21005;-75
2022/06/09 04:11:50;;;;;;;5.50;3.42;;;;;;;;;;1726704;83;21021;-76
2022/06/09 04:14:16;;;;;;;6.17;3.45;;;;;;;;;;1705684;83;21560;-75
2022/06/09 04:16:45;;;;;;;4.08;3.00;;;;;;;;;;1732404;82;20984;-75
2022/06/09 04:19:14;;;;;;;4.00;2.80;;;;;;;;;;1690740;85;21079;-75
2022/06/09 04:21:40;;;;;;;3.83;3.20;;;;;;;;;;1691400;84;21013;-75
2022/06/09 04:24:06;;;;;;;3.90;2.98;;;;;;;;;;1694289;85;21048;-76
2022/06/09 04:26:34;;;;;;;4.87;3.10;;;;;;;;;;1691131;85;20990;-76
2022/06/09 04:29:01;;;;;;;4.08;3.67;;;;;;;;;;1696376;84;21546;-76
2022/06/09 04:31:27;;;;;;;5.20;3.65;;;;;;;;;;1724234;83;21004;-75
2022/06/09 04:33:53;;;;;;;5.90;3.20;;;;;;;;;;1689638;85;21096;-76
2022/06/09 04:36:19;;;;;;;5.87;3.00;;;;;;;;;;1691043;85;21097;-77
2022/06/09 04:38:45;;;;;;;5.90;2.98;;;;;;;;;;1689312;85;21579;-77
2022/06/09 04:41:12;;;;;;;7.45;2.80;;;;;;;;;;1694891;85;21139;-77
2022/06/09 04:43:39;;;;;;;3.80;2.35;;;;;;;;;;1685650;85;21057;-76
2022/06/09 04:46:05;;;;;;;3.30;2.55;;;;;;;;;;1723636;83;21662;-76
2022/06/09 04:48:32;;;;;;;4.50;2.60;;;;;;;;;;1723960;83;21084;-76
2022/06/09 04:50:58;;;;;;;14.05;3.27;;;;;;;;;;1720125;83;21012;-75
2022/06/09 04:53:24;;;;;;;5.85;2.42;;;;;;;;;;1720588;82;21031;-75
2022/06/09 04:55:52;;;;;;;5.22;2.80;;;;;;;;;;1724230;83;21099;-75
2022/06/09 04:58:18;;;;;;;5.50;2.42;;;;;;;;;;1723810;83;21582;-75
2022/06/09 05:00:44;;;;;;;40.80;5.03;;;;;;;;;;1724316;82;21040;-77
2022/06/09 05:03:15;;;;;;;6.35;2.50;;;;;;;;;;1723293;83;21168;-76
2022/06/09 05:05:42;;;;;;;;;;;;;;;;;;1706859;83;21007;-77
2022/06/09 05:08:10;;;;;;;4.50;2.47;;;;;;;;;;1718264;82;20144;-76
2022/06/09 05:10:38;;;;;;;4.12;2.42;;;;;;;;;;1753213;82;21094;-76
2022/06/09 05:13:06;;;;;;;4.53;2.62;;;;;;;;;;1748763;82;21081;-76
2022/06/09 05:15:34;;;;;;;5.08;2.27;;;;;;;;;;1748676;82;21525;-74
2022/06/09 05:18:00;;;;;;;4.47;2.70;;;;;;;;;;1747134;82;21507;-73
2022/06/09 05:20:26;;;;;;;3.75;2.40;;;;;;;;;;1749085;82;21526;-73
2022/06/09 05:22:52;;;;;;;4.78;2.27;;;;;;;;;;1752938;81;21262;-74
2022/06/09 05:25:19;;;;;;;14.15;2.50;;;;;;;;;;1752352;82;21080;-74
2022/06/09 05:27:45;;;;;;;3.87;2.30;;;;;;;;;;1764639;80;21063;-74
2022/06/09 05:30:14;;;;;;;5.05;2.60;;;;;;;;;;1763040;80;21081;-73
2022/06/09 05:32:40;;;;;;;5.40;2.37;;;;;;;;;;1774796;80;21005;-73
2022/06/09 05:35:09;;;;;;;4.42;2.27;;;;;;;;;;1773965;80;21019;-73
2022/06/09 05:45:52;;;;;;;5.30;2.85;;;;;;;;;;1754253;81;20984;-75
2022/06/09 05:48:19;;;;;;;3.42;2.15;;;;;;;;;;1764240;81;21045;-73
2022/06/09 05:50:45;;;;;;;3.33;2.12;;;;;;;;;;1763738;81;21014;-73
2022/06/09 05:53:11;;;;;;;3.37;1.80;;;;;;;;;;1763705;80;21036;-74
2022/06/09 05:55:37;;;;;;;2.50;1.90;;;;;;;;;;1765422;80;22045;-77
2022/06/09 05:58:03;;;;;;;2.77;1.90;;;;;;;;;;1764438;81;21031;-77
2022/06/09 06:00:30;;;;;;;3.85;2.40;;;;;;;;;;1764302;81;21043;-77
2022/06/09 06:02:57;;;;;;;2.42;1.80;;;;;;;;;;1739580;80;21150;-77
2022/06/09 06:08:08;;;;;;;2.17;1.98;;;;;;;;;;1757220;81;21006;-78
2022/06/09 06:10:34;;;;;;;2.83;1.85;;;;;;;;;;1744483;80;21021;-77
2022/06/09 06:13:00;;;;;;;16.48;2.70;;;;;;;;;;1755775;82;21089;-80
2022/06/09 06:15:26;;;;;;;8.78;2.90;;;;;;;;;;1757040;80;21490;-72
2022/06/09 06:17:54;;;;;;;10.98;3.02;;;;;;;;;;1759890;80;20984;-72
2022/06/09 06:20:21;;;;;;;4.80;2.00;;;;;;;;;;1758244;80;22297;-72
2022/06/09 06:22:47;;;;;;;5.05;2.40;;;;;;;;;;1766198;80;21078;-73
2022/06/09 06:25:14;;;;;;;4.42;2.00;;;;;;;;;;1696118;83;21040;-76
2022/06/09 06:27:41;;;;;;;4.72;2.20;;;;;;;;;;1692572;85;21104;-73
2022/06/09 06:30:08;;;;;;;5.62;2.37;;;;;;;;;;1667215;85;21036;-73
2022/06/09 06:32:34;;;;;;;5.65;2.10;;;;;;;;;;1694628;85;21120;-72
2022/06/09 06:35:01;;;;;;;3.42;2.30;;;;;;;;;;1721740;82;21072;-75
2022/06/09 06:37:27;;;;;;;3.20;2.20;;;;;;;;;;1717642;82;21017;-70
2022/06/09 06:39:53;;;;;;;5.00;2.20;;;;;;;;;;1717522;83;21048;-70
2022/06/09 06:42:19;;;;;;;3.52;1.98;;;;;;;;;;1714401;83;21032;-71
2022/06/09 06:44:45;;;;;;;3.42;2.00;;;;;;;;;;1720062;83;21078;-70
2022/06/09 06:47:11;;;;;;;3.67;2.00;;;;;;;;;;1720567;82;21514;-69
2022/06/09 06:49:39;;;;;;;3.30;2.00;;;;;;;;;;1723372;83;21043;-69
2022/06/09 06:52:06;;;;;;;5.78;2.05;;;;;;;;;;1712022;83;21646;-69
2022/06/09 06:54:33;;;;;;;3.90;1.98;;;;;;;;;;1705250;82;21060;-69
2022/06/09 06:56:59;;;;;;;2.98;1.90;;;;;;;;;;1715624;83;21196;-70
2022/06/09 06:59:27;;;;;;;7.42;2.10;;;;;;;;;;1697167;84;21015;-70
2022/06/09 07:01:53;;;;;;;2.50;2.30;;;;;;;;;;1720749;82;21055;-70
2022/06/09 07:04:20;;;;;;;3.00;1.72;;;;;;;;;;1689237;83;21181;-70
2022/06/09 07:06:46;;;;;;;4.50;2.40;;;;;;;;;;1720545;82;21010;-73
2022/06/09 07:09:13;;;;;;;3.47;1.98;;;;;;;;;;1686911;85;21021;-66
2022/06/09 07:11:40;;;;;;;13.58;2.80;;;;;;;;;;1691299;84;21050;-83
2022/06/09 07:14:08;;;;;;;4.65;2.10;;;;;;;;;;1688601;84;21017;-80
2022/06/09 07:16:34;;;;;;;3.77;2.40;;;;;;;;;;1690607;84;21007;-72
2022/06/09 07:19:00;;;;;;;4.65;2.17;;;;;;;;;;1722493;82;21560;-75
2022/06/09 07:21:28;;;;;;;4.12;2.00;;;;;;;;;;1722160;82;21031;-79
2022/06/09 07:23:54;;;;;;;3.45;2.00;;;;;;;;;;1729889;82;21088;-82
2022/06/09 07:26:20;;;;;;;2.77;2.10;;;;;;;;;;1704210;82;21061;-82
2022/06/09 07:28:46;;;;;;;7.85;2.22;;;;;;;;;;1697789;82;21057;-77
2022/06/09 07:31:13;;;;;;;7.30;2.33;;;;;;;;;;1678661;85;21033;-81
2022/06/09 07:33:40;;;;;;;3.35;2.15;;;;;;;;;;1691718;84;21132;-77
2022/06/09 07:36:07;;;;;;;5.58;2.10;;;;;;;;;;1683311;83;21023;-83
2022/06/09 07:38:33;;;;;;;3.65;2.05;;;;;;;;;;1691736;83;20998;-82
2022/06/09 07:41:00;;;;;;;2.50;1.87;;;;;;;;;;1691529;83;21044;-84
2022/06/09 07:43:26;;;;;;;12.75;3.20;;;;;;;;;;1708531;82;21032;-81
2022/06/09 07:45:52;;;;;;;3.70;2.05;;;;;;;;;;1687483;84;20975;-86
2022/06/09 07:48:22;;;;;;;3.17;1.92;;;;;;;;;;1694238;83;21005;-80
2022/06/09 07:50:46;;;;;;;2.60;2.12;;;;;;;;;;1697001;83;21028;-78
2022/06/09 07:53:14;;;;;;;3.22;2.00;;;;;;;;;;1715683;82;21495;-72
2022/06/09 07:55:40;;;;;;;4.87;2.17;;;;;;;;;;1696516;82;21059;-73
2022/06/09 07:58:06;;;;;;;5.12;2.30;;;;;;;;;;1732292;82;21060;-72
2022/06/09 08:00:34;;;;;;;17.65;3.80;;;;;;;;;;1694264;83;21133;-77
2022/06/09 08:03:03;;;;;;;11.08;2.83;;;;;;;;;;1699396;83;21042;-74
2022/06/09 08:05:30;;;;;;;5.00;2.05;;;;;;;;;;1731062;81;21067;-73
2022/06/09 08:07:56;;;;;;;3.98;2.20;;;;;;;;;;1743859;81;21057;-74
2022/06/09 08:10:23;;;;;;;2.52;2.00;;;;;;;;;;1733229;81;21016;-73
2022/06/09 08:12:52;;;;;;;2.40;2.00;;;;;;;;;;1734173;81;21046;-73
2022/06/09 08:15:19;;;;;;;3.33;2.10;;;;;;;;;;1732586;81;21127;-73
2022/06/09 08:17:46;;;;;;;3.62;1.85;;;;;;;;;;1741024;81;21060;-72
2022/06/09 08:20:13;;;;;;;2.00;1.80;;;;;;;;;;1735735;81;21008;-73
2022/06/09 08:22:41;;;;;;;4.00;2.20;;;;;;;;;;1739912;81;21045;-73
2022/06/09 08:25:07;;;;;;;3.50;2.00;;;;;;;;;;1749279;81;21056;-74
2022/06/09 08:27:34;;;;;;;1.95;1.85;;;;;;;;;;1730792;81;21096;-73
2022/06/09 08:30:01;;;;;;;2.62;2.20;;;;;;;;;;1743960;81;21043;-75
2022/06/09 08:32:27;;;;;;;3.27;1.90;;;;;;;;;;1743555;81;20972;-78
2022/06/09 08:34:52;;;;;;;2.00;1.80;;;;;;;;;;1733785;81;21567;-73
2022/06/09 08:37:18;;;;;;;2.33;2.00;;;;;;;;;;1739083;81;21039;-74
2022/06/09 08:39:44;;;;;;;3.47;2.25;;;;;;;;;;1735784;83;21545;-74
2022/06/09 08:42:21;;;;;;;6.20;2.10;;;;;;;;;;1744720;81;21005;-74
2022/06/09 08:44:50;;;;;;;3.37;1.90;;;;;;;;;;1736051;82;21036;-74
2022/06/09 08:47:29;;;;;;;2.58;1.98;;;;;;;;;;1732053;83;21052;-73
2022/06/09 08:50:06;;;;;;;2.00;1.80;;;;;;;;;;1706327;84;21085;-74
2022/06/09 08:52:37;;;;;;;2.33;1.92;;;;;;;;;;1737215;81;21123;-74
2022/06/09 08:55:05;;;;;;;8.85;2.15;;;;;;;;;;1735591;81;21015;-75
2022/06/09 08:57:32;;;;;;;3.27;1.87;;;;;;;;;;1735588;81;21060;-74
2022/06/09 08:59:58;;;;;;;3.95;2.12;;;;;;;;;;1742903;81;21545;-74
2022/06/09 09:02:32;;;;;;;2.30;2.00;;;;;;;;;;1755616;80;21630;-74
2022/06/09 09:05:00;;;;;;;7.50;2.12;;;;;;;;;;1766221;81;21118;-75
2022/06/09 09:07:29;;;;;;;4.78;2.08;;;;;;;;;;1751687;81;21512;-73
2022/06/09 09:09:57;;;;;;;2.92;1.90;;;;;;;;;;1722902;82;21064;-71
2022/06/09 09:12:37;;;;;;;2.15;1.95;;;;;;;;;;1717898;82;21052;-77
2022/06/09 09:15:05;;;;;;;11.08;2.42;;;;;;;;;;1720818;82;21076;-76
2022/06/09 09:17:51;;;;;;;3.98;2.25;;;;;;;;;;1692906;84;21044;-76
2022/06/09 09:20:31;;;;;;;2.58;1.92;;;;;;;;;;1689039;83;21069;-77
2022/06/09 09:23:16;;;;;;;7.87;2.05;;;;;;;;;;1661616;85;21042;-76
2022/06/09 09:25:54;;;;;;;2.33;2.02;;;;;;;;;;1726038;82;21045;-81
2022/06/09 09:30:14;;;;;;;3.47;2.15;;;;;;;;;;1806131;79;23039;-70
2022/06/09 09:32:42;;;;;;;4.55;2.10;;;;;;;;;;1761812;81;21544;-72
2022/06/09 09:35:12;;;;;;;4.15;2.15;;;;;;;;;;1784827;80;21059;-71
2022/06/09 09:37:43;;;;;;;2.80;2.12;;;;;;;;;;1793049;80;21480;-73
2022/06/09 09:40:16;;;;;;;3.27;2.20;;;;;;;;;;1792783;80;21087;-73
2022/06/09 09:42:42;;;;;;;2.40;2.20;;;;;;;;;;1758091;81;21056;-73
2022/06/09 09:45:14;;;;;;;9.20;2.80;;;;;;;;;;1723505;81;21036;-72
2022/06/09 09:47:54;;;;;;;4.00;2.75;;;;;;;;;;1738916;82;21009;-72
2022/06/09 09:50:25;;;;;;;3.00;2.60;;;;;;;;;;1735619;82;21560;-72
2022/06/09 09:53:08;;;;;;;4.17;2.00;;;;;;;;;;1736175;82;21017;-71
2022/06/09 09:55:35;;;;;;;6.50;2.60;;;;;;;;;;1733355;82;21120;-71
2022/06/09 09:58:09;;;;;;;3.60;2.25;;;;;;;;;;1736028;83;21607;-71
2022/06/09 10:00:35;;;;;;;2.92;2.30;;;;;;;;;;1735518;82;21032;-70
2022/06/09 10:08:40;;;;;;;2.87;2.27;;;;;;;;;;1728121;82;21029;-71
2022/06/09 10:11:53;;;;;;;11.20;2.90;;;;;;;;;;1732994;82;21502;-70
2022/06/09 10:13:36;;;;;;;2.62;2.30;;;;;;;;;;1731542;83;21100;-71
2022/06/09 10:16:02;;;;;;;3.27;2.87;;;;;;;;;;1726601;83;21052;-70
2022/06/09 10:18:30;;;;;;;5.78;3.47;;;;;;;;;;1665518;84;21548;-72
2022/06/09 10:21:04;;;;;;;4.00;3.02;;;;;;;;;;1701876;84;21029;-73
2022/06/09 10:23:32;;;;;;;6.75;2.72;;;;;;;;;;1685010;83;21014;-72
2022/06/09 10:26:01;;;;;;;2.42;2.20;;;;;;;;;;1686637;84;21029;-73
2022/06/09 10:28:39;;;;;;;4.03;2.90;;;;;;;;;;1686330;84;21565;-82
2022/06/09 10:31:07;;;;;;;3.22;2.02;;;;;;;;;;1740979;81;21081;-80
2022/06/09 10:33:38;;;;;;;4.03;2.30;;;;;;;;;;1738263;81;21148;-84
2022/06/09 10:36:15;;;;;;;4.15;2.22;;;;;;;;;;1733634;81;20990;-78
2022/06/09 10:38:43;;;;;;;4.15;2.30;;;;;;;;;;1749481;81;21041;-80
2022/06/09 10:41:11;;;;;;;3.90;2.20;;;;;;;;;;1749701;81;21281;-78
2022/06/09 10:43:39;;;;;;;3.67;2.20;;;;;;;;;;1738985;82;20994;-86
2022/06/09 10:46:13;;;;;;;4.00;2.20;;;;;;;;;;1749537;81;21026;-84
2022/06/09 10:57:10;;;;;;;2.50;2.20;;;;;;;;;;1732354;81;21041;-84
2022/06/09 10:59:41;;;;;;;3.95;2.05;;;;;;;;;;1732800;81;21497;-79
2022/06/09 11:02:11;;;;;;;4.03;2.30;;;;;;;;;;1731197;81;21073;-82
2022/06/09 11:04:38;;;;;;;2.75;2.40;;;;;;;;;;1751076;81;21033;-83
2022/06/09 11:07:11;;;;;;;4.42;2.08;;;;;;;;;;1734924;82;21025;-80
2022/06/09 11:09:36;;;;;;;5.50;2.50;;;;;;;;;;1751683;81;21043;-82
2022/06/09 11:12:14;;;;;;;3.10;2.40;;;;;;;;;;1751369;81;21107;-85
2022/06/09 11:14:46;;;;;;;4.10;2.50;;;;;;;;;;1730649;82;21096;-84
2022/06/09 11:17:25;;;;;;;4.35;2.40;;;;;;;;;;1729200;81;21172;-87
2022/06/09 11:19:57;;;;;;;2.65;2.02;;;;;;;;;;1742907;81;21093;-83
2022/06/09 11:22:38;;;;;;;3.77;2.50;;;;;;;;;;1762065;81;21073;-81
2022/06/09 11:25:09;;;;;;;4.08;2.30;;;;;;;;;;1759312;81;21529;-79
2022/06/09 11:27:38;;;;;;;2.30;2.10;;;;;;;;;;1736580;81;21004;-86
2022/06/09 11:30:12;;;;;;;2.70;2.25;;;;;;;;;;1754424;81;21017;-80
2022/06/09 11:32:52;;;;;;;2.95;2.50;;;;;;;;;;1746549;81;20997;-80
2022/06/09 11:35:26;;;;;;;3.85;2.25;;;;;;;;;;1751539;81;21020;-80
2022/06/09 11:37:55;;;;;;;7.85;2.70;;;;;;;;;;1749906;81;21072;-80
2022/06/09 11:40:23;;;;;;;2.72;2.20;;;;;;;;;;1725867;81;21097;-80
2022/06/09 11:43:07;;;;;;;2.92;2.20;;;;;;;;;;1715612;82;20969;-84
2022/06/09 11:45:37;;;;;;;3.47;2.20;;;;;;;;;;1750432;82;21044;-80
2022/06/09 11:48:04;;;;;;;3.35;2.30;;;;;;;;;;1751028;81;21520;-81
2022/06/09 11:50:38;;;;;;;3.58;2.20;;;;;;;;;;1743579;81;21584;-80
2022/06/09 11:53:04;;;;;;;2.95;2.25;;;;;;;;;;1749506;81;21005;-80
2022/06/09 11:58:36;;;;;;;5.00;2.15;;;;;;;;;;1709474;83;20995;-79
2022/06/09 12:01:17;;;;;;;3.85;2.30;;;;;;;;;;1692589;85;21092;-77
2022/06/09 12:03:45;;;;;;;3.67;2.40;;;;;;;;;;1710961;83;21078;-74
2022/06/09 12:06:14;;;;;;;3.35;2.27;;;;;;;;;;1688754;84;21042;-78
2022/06/09 12:08:57;;;;;;;2.50;2.20;;;;;;;;;;1685017;83;21533;-75
2022/06/09 12:11:25;;;;;;;3.30;2.30;;;;;;;;;;1689651;83;21002;-76
2022/06/09 12:14:03;;;;;;;4.12;2.65;;;;;;;;;;1719521;83;21056;-74
2022/06/09 12:16:32;;;;;;;3.47;2.22;;;;;;;;;;1670983;83;21563;-73
2022/06/09 12:19:00;;;;;;;5.87;2.35;;;;;;;;;;1658033;85;21077;-76
2022/06/09 12:21:28;;;;;;;6.83;2.45;;;;;;;;;;1735339;81;21132;-73
2022/06/09 12:23:56;;;;;;;8.00;2.30;;;;;;;;;;1753076;82;21107;-76
2022/06/09 12:26:27;;;;;;;3.60;2.40;;;;;;;;;;1752476;81;21537;-71
2022/06/09 12:28:56;;;;;;;5.03;2.10;;;;;;;;;;1741592;81;21081;-73
2022/06/09 12:31:22;;;;;;;11.68;3.02;;;;;;;;;;1737427;82;21044;-78
2022/06/09 12:34:08;;;;;;;3.25;2.20;;;;;;;;;;1744070;81;21077;-78
2022/06/09 12:36:48;;;;;;;3.80;2.35;;;;;;;;;;1674280;85;21026;-78
2022/06/09 12:39:19;;;;;;;3.80;2.17;;;;;;;;;;1748246;82;21044;-77
2022/06/09 12:41:47;;;;;;;5.03;2.30;;;;;;;;;;1732896;81;21036;-78
2022/06/09 12:44:24;;;;;;;5.83;2.50;;;;;;;;;;1754255;82;21048;-78
2022/06/09 12:47:01;;;;;;;6.62;2.55;;;;;;;;;;1743772;81;21057;-76
2022/06/09 12:49:33;;;;;;;3.98;2.10;;;;;;;;;;1750300;81;21080;-76
2022/06/09 12:51:59;;;;;;;3.20;2.20;;;;;;;;;;1747587;81;21024;-78
2022/06/09 12:54:34;;;;;;;2.75;2.42;;;;;;;;;;1746602;82;21142;-77
2022/06/09 12:57:02;;;;;;;2.30;2.08;;;;;;;;;;1741795;81;21536;-78
2022/06/09 12:59:33;;;;;;;2.50;2.00;;;;;;;;;;1730744;82;21524;-77
2022/06/09 13:02:04;;;;;;;3.92;2.35;;;;;;;;;;1689223;83;21081;-76
2022/06/09 13:04:31;;;;;;;2.55;2.12;;;;;;;;;;1673437;85;21098;-78
2022/06/09 13:07:00;;;;;;;2.70;2.00;;;;;;;;;;1744047;81;21525;-77
2022/06/09 13:09:31;;;;;;;3.22;2.25;;;;;;;;;;1746886;81;21001;-78
2022/06/09 13:14:44;;;;;;;2.33;1.90;;;;;;;;;;1754396;81;21068;-79
2022/06/09 13:17:14;;;;;;;2.70;2.02;;;;;;;;;;1752895;81;21123;-77
2022/06/09 13:19:41;;;;;;;5.55;2.37;;;;;;;;;;1747590;82;21053;-78
2022/06/09 13:22:08;;;;;;;3.87;2.40;;;;;;;;;;1747382;81;21544;-77
2022/06/09 13:24:35;;;;;;;3.67;2.42;;;;;;;;;;1740720;82;21037;-78
2022/06/09 13:27:06;;;;;;;4.35;2.47;;;;;;;;;;1741590;81;21077;-79
2022/06/09 13:29:34;;;;;;;5.12;2.92;;;;;;;;;;1733261;83;21209;-78
2022/06/09 13:32:20;;;;;;;4.30;2.58;;;;;;;;;;1734994;81;21525;-75
2022/06/09 13:34:48;;;;;;;5.70;2.80;;;;;;;;;;1719790;81;21049;-74
2022/06/09 13:37:18;;;;;;;3.65;2.37;;;;;;;;;;1724014;81;21079;-75
2022/06/09 13:39:46;;;;;;;3.90;2.62;;;;;;;;;;1723731;81;21060;-76
2022/06/09 13:42:18;;;;;;;5.17;2.50;;;;;;;;;;1735931;82;21041;-74
2022/06/09 13:44:46;;;;;;;4.60;2.70;;;;;;;;;;1737495;82;20990;-75
2022/06/09 13:47:23;;;;;;;7.90;2.42;;;;;;;;;;1737568;81;21103;-74
2022/06/09 13:50:10;;;;;;;5.83;2.50;;;;;;;;;;1739099;81;21080;-74
2022/06/09 13:52:38;;;;;;;4.65;2.33;;;;;;;;;;1725486;82;21109;-74
2022/06/09 13:55:07;;;;;;;5.90;2.50;;;;;;;;;;1739550;81;20969;-76
2022/06/09 13:57:35;;;;;;;4.80;2.67;;;;;;;;;;1746184;81;20991;-74
2022/06/09 14:00:03;;;;;;;6.12;2.60;;;;;;;;;;1746309;81;21021;-75
2022/06/09 14:02:32;;;;;;;3.50;2.20;;;;;;;;;;1748388;81;21588;-75
2022/06/09 14:04:59;;;;;;;6.25;2.52;;;;;;;;;;1749740;81;21049;-81
2022/06/09 14:07:25;;;;;;;28.10;4.25;;;;;;;;;;1732195;82;21025;-79
2022/06/09 14:09:51;;;;;;;17.95;3.60;;;;;;;;;;1726108;82;21042;-77
2022/06/09 14:12:18;;;;;;;3.50;2.15;;;;;;;;;;1741025;81;21567;-80
2022/06/09 14:14:44;;;;;;;3.50;2.10;;;;;;;;;;1745677;81;21120;-80
2022/06/09 14:17:15;;;;;;;5.70;2.77;;;;;;;;;;1749632;81;21078;-79
2022/06/09 14:19:42;;;;;;;3.35;2.50;;;;;;;;;;1743970;81;21089;-74
2022/06/09 14:22:09;;;;;;;3.42;2.27;;;;;;;;;;1746644;81;21116;-75
2022/06/09 14:24:35;;;;;;;4.30;2.30;;;;;;;;;;1734667;81;21041;-75
2022/06/09 14:27:03;;;;;;;3.98;2.40;;;;;;;;;;1735664;81;21059;-74
2022/06/09 14:29:30;;;;;;;6.45;2.62;;;;;;;;;;1756893;81;21078;-74
2022/06/09 14:31:56;;;;;;;2.83;2.10;;;;;;;;;;1747167;81;21636;-76
2022/06/09 14:34:22;;;;;;;3.45;2.50;;;;;;;;;;1738453;81;21003;-74
2022/06/09 14:36:49;;;;;;;2.90;2.30;;;;;;;;;;1718548;81;21118;-74
2022/06/09 14:39:16;;;;;;;4.67;2.40;;;;;;;;;;1744054;81;20990;-72
2022/06/09 14:41:42;;;;;;;9.63;2.90;;;;;;;;;;1732400;81;21009;-75
2022/06/09 14:44:09;;;;;;;3.98;2.40;;;;;;;;;;1736271;81;21025;-76
2022/06/09 14:46:36;;;;;;;3.42;2.58;;;;;;;;;;1735242;81;20985;-76
2022/06/09 14:49:03;;;;;;;2.52;2.30;;;;;;;;;;1724993;81;21041;-76
2022/06/09 14:51:29;;;;;;;5.00;2.58;;;;;;;;;;1737123;81;21016;-72
2022/06/09 14:53:55;;;;;;;4.42;2.90;;;;;;;;;;1741378;81;21019;-77
2022/06/09 14:56:23;;;;;;;3.40;2.55;;;;;;;;;;1749947;81;21584;-73
2022/06/09 14:58:49;;;;;;;5.83;2.70;;;;;;;;;;1745188;82;21069;-76
2022/06/09 15:01:16;;;;;;;10.15;2.52;;;;;;;;;;1734085;81;21160;-78
2022/06/09 15:03:42;;;;;;;3.52;2.20;;;;;;;;;;1735848;82;22478;-77
2022/06/09 15:06:13;;;;;;;6.28;2.35;;;;;;;;;;1744993;81;21025;-77
2022/06/09 15:08:40;;;;;;;6.12;2.47;;;;;;;;;;1754105;81;20998;-76
2022/06/09 15:11:06;;;;;;;5.45;2.27;;;;;;;;;;1726767;81;20986;-78
2022/06/09 15:13:33;;;;;;;4.53;2.40;;;;;;;;;;1736513;81;21046;-77
2022/06/09 15:16:04;;;;;;;2.25;2.05;;;;;;;;;;1754749;81;20970;-80
2022/06/09 15:18:27;;;;;;;3.50;2.70;;;;;;;;;;1739112;81;21029;-77
2022/06/09 15:20:55;;;;;;;6.10;2.37;;;;;;;;;;1748599;81;21053;-77
2022/06/09 15:23:21;;;;;;;4.37;2.40;;;;;;;;;;1741715;81;22071;-78
2022/06/09 15:25:47;;;;;;;3.20;2.33;;;;;;;;;;1739430;81;21447;-84
2022/06/09 15:28:15;;;;;;;3.37;2.33;;;;;;;;;;1749163;81;21026;-84